sensor_id;sensor_type;location;lat;lon;timestamp;temperature;humidity
23717;DHT22;22094;52.130;5.598;2023-01-29T00:00:40;2.90;99.90
23717;DHT22;22094;52.130;5.598;2023-01-29T00:03:05;2.90;99.90
23717;DHT22;22094;52.130;5.598;2023-01-29T00:05:31;3.00;99.90
23717;DHT22;22094;52.130;5.598;2023-01-29T00:07:56;2.90;99.90
23717;DHT22;22094;52.130;5.598;2023-01-29T00:10:23;2.80;99.90
23717;DHT22;22094;52.130;5.598;2023-01-29T00:12:49;2.80;99.90
23717;DHT22;22094;52.130;5.598;2023-01-29T00:15:16;2.90;99.90
23717;DHT22;22094;52.130;5.598;2023-01-29T00:17:42;2.90;99.90
23717;DHT22;22094;52.130;5.598;2023-01-29T00:20:08;2.90;99.90
23717;DHT22;22094;52.130;5.598;2023-01-29T00:22:33;3.00;99.90
23717;DHT22;22094;52.130;5.598;2023-01-29T00:24:59;3.00;99.90
23717;DHT22;22094;52.130;5.598;2023-01-29T00:27:25;3.00;99.90
23717;DHT22;22094;52.130;5.598;2023-01-29T00:29:50;3.00;99.90
23717;DHT22;22094;52.130;5.598;2023-01-29T00:32:36;3.00;99.90
23717;DHT22;22094;52.130;5.598;2023-01-29T00:35:01;3.00;99.90
23717;DHT22;22094;52.130;5.598;2023-01-29T00:37:27;3.00;99.90
23717;DHT22;22094;52.130;5.598;2023-01-29T00:39:52;3.00;99.90
23717;DHT22;22094;52.130;5.598;2023-01-29T00:42:18;3.10;99.90
23717;DHT22;22094;52.130;5.598;2023-01-29T00:45:02;3.10;99.90
23717;DHT22;22094;52.130;5.598;2023-01-29T00:47:28;3.00;99.90
23717;DHT22;22094;52.130;5.598;2023-01-29T00:50:18;3.10;99.90
23717;DHT22;22094;52.130;5.598;2023-01-29T00:52:44;3.00;99.90
23717;DHT22;22094;52.130;5.598;2023-01-29T00:55:10;3.00;99.90
23717;DHT22;22094;52.130;5.598;2023-01-29T00:57:37;2.90;99.90
23717;DHT22;22094;52.130;5.598;2023-01-29T01:00:04;3.00;99.90
23717;DHT22;22094;52.130;5.598;2023-01-29T01:02:30;3.00;99.90
23717;DHT22;22094;52.130;5.598;2023-01-29T01:05:16;3.00;99.90
23717;DHT22;22094;52.130;5.598;2023-01-29T01:07:50;3.00;99.90
23717;DHT22;22094;52.130;5.598;2023-01-29T01:10:23;3.00;99.90
23717;DHT22;22094;52.130;5.598;2023-01-29T01:12:53;3.00;99.90
23717;DHT22;22094;52.130;5.598;2023-01-29T01:15:20;3.00;99.90
23717;DHT22;22094;52.130;5.598;2023-01-29T01:17:46;3.10;99.90
23717;DHT22;22094;52.130;5.598;2023-01-29T01:20:13;3.00;99.90
23717;DHT22;22094;52.130;5.598;2023-01-29T01:22:39;3.10;99.90
23717;DHT22;22094;52.130;5.598;2023-01-29T01:25:05;3.10;99.90
23717;DHT22;22094;52.130;5.598;2023-01-29T01:27:31;3.00;99.90
23717;DHT22;22094;52.130;5.598;2023-01-29T01:29:56;3.10;99.90
23717;DHT22;22094;52.130;5.598;2023-01-29T01:32:22;3.10;99.90
23717;DHT22;22094;52.130;5.598;2023-01-29T01:34:48;3.00;99.90
23717;DHT22;22094;52.130;5.598;2023-01-29T01:37:13;3.10;99.90
23717;DHT22;22094;52.130;5.598;2023-01-29T01:39:39;3.10;99.90
23717;DHT22;22094;52.130;5.598;2023-01-29T01:42:10;3.00;99.90
23717;DHT22;22094;52.130;5.598;2023-01-29T01:44:55;3.00;99.90
23717;DHT22;22094;52.130;5.598;2023-01-29T01:47:46;3.10;99.90
23717;DHT22;22094;52.130;5.598;2023-01-29T01:50:15;3.20;99.90
23717;DHT22;22094;52.130;5.598;2023-01-29T01:52:49;3.60;99.90
23717;DHT22;22094;52.130;5.598;2023-01-29T01:55:20;3.10;99.90
23717;DHT22;22094;52.130;5.598;2023-01-29T01:57:53;3.20;99.90
23717;DHT22;22094;52.130;5.598;2023-01-29T02:00:21;3.20;99.90
23717;DHT22;22094;52.130;5.598;2023-01-29T02:02:48;3.10;99.90
23717;DHT22;22094;52.130;5.598;2023-01-29T02:05:33;3.10;99.90
23717;DHT22;22094;52.130;5.598;2023-01-29T02:08:56;3.10;99.90
23717;DHT22;22094;52.130;5.598;2023-01-29T02:11:32;3.10;99.90
23717;DHT22;22094;52.130;5.598;2023-01-29T02:13:58;3.20;99.90
23717;DHT22;22094;52.130;5.598;2023-01-29T02:16:24;3.10;99.90
23717;DHT22;22094;52.130;5.598;2023-01-29T02:18:49;3.10;99.90
23717;DHT22;22094;52.130;5.598;2023-01-29T02:24:29;3.10;99.90
23717;DHT22;22094;52.130;5.598;2023-01-29T02:27:15;3.10;99.90
23717;DHT22;22094;52.130;5.598;2023-01-29T02:32:56;3.10;99.90
23717;DHT22;22094;52.130;5.598;2023-01-29T02:38:29;3.00;99.90
23717;DHT22;22094;52.130;5.598;2023-01-29T02:46:23;3.00;99.90
23717;DHT22;22094;52.130;5.598;2023-01-29T02:49:31;2.90;99.90
23717;DHT22;22094;52.130;5.598;2023-01-29T02:54:44;3.00;99.90
23717;DHT22;22094;52.130;5.598;2023-01-29T02:57:20;2.90;99.90
23717;DHT22;22094;52.130;5.598;2023-01-29T03:05:30;2.90;99.90
23717;DHT22;22094;52.130;5.598;2023-01-29T03:08:01;2.90;99.90
23717;DHT22;22094;52.130;5.598;2023-01-29T03:10:53;2.80;99.90
23717;DHT22;22094;52.130;5.598;2023-01-29T03:13:44;2.80;99.90
23717;DHT22;22094;52.130;5.598;2023-01-29T03:19:03;2.90;99.90
23717;DHT22;22094;52.130;5.598;2023-01-29T03:21:34;2.90;99.90
23717;DHT22;22094;52.130;5.598;2023-01-29T03:24:20;2.90;99.90
23717;DHT22;22094;52.130;5.598;2023-01-29T03:27:08;3.00;99.90
23717;DHT22;22094;52.130;5.598;2023-01-29T03:29:56;2.90;99.90
23717;DHT22;22094;52.130;5.598;2023-01-29T03:32:42;2.90;99.90
23717;DHT22;22094;52.130;5.598;2023-01-29T03:35:10;3.00;99.90
23717;DHT22;22094;52.130;5.598;2023-01-29T03:37:42;3.00;99.90
23717;DHT22;22094;52.130;5.598;2023-01-29T03:40:09;3.00;99.90
23717;DHT22;22094;52.130;5.598;2023-01-29T03:42:58;3.00;99.90
23717;DHT22;22094;52.130;5.598;2023-01-29T03:48:38;2.90;99.90
23717;DHT22;22094;52.130;5.598;2023-01-29T03:57:02;2.90;99.90
23717;DHT22;22094;52.130;5.598;2023-01-29T03:59:53;2.90;99.90
23717;DHT22;22094;52.130;5.598;2023-01-29T04:02:25;2.90;99.90
23717;DHT22;22094;52.130;5.598;2023-01-29T04:05:03;2.80;99.90
23717;DHT22;22094;52.130;5.598;2023-01-29T04:07:30;2.90;99.90
23717;DHT22;22094;52.130;5.598;2023-01-29T04:10:10;2.80;99.90
23717;DHT22;22094;52.130;5.598;2023-01-29T04:12:44;2.90;99.90
23717;DHT22;22094;52.130;5.598;2023-01-29T04:15:13;2.70;99.90
23717;DHT22;22094;52.130;5.598;2023-01-29T04:17:42;2.80;99.90
23717;DHT22;22094;52.130;5.598;2023-01-29T04:20:10;2.80;99.90
23717;DHT22;22094;52.130;5.598;2023-01-29T04:22:38;2.80;99.90
23717;DHT22;22094;52.130;5.598;2023-01-29T04:25:08;2.80;99.90
23717;DHT22;22094;52.130;5.598;2023-01-29T04:28:08;2.80;99.90
23717;DHT22;22094;52.130;5.598;2023-01-29T04:33:37;2.80;99.90
23717;DHT22;22094;52.130;5.598;2023-01-29T04:39:13;2.80;99.90
23717;DHT22;22094;52.130;5.598;2023-01-29T04:41:49;2.80;99.90
23717;DHT22;22094;52.130;5.598;2023-01-29T04:44:18;2.80;99.90
23717;DHT22;22094;52.130;5.598;2023-01-29T04:55:07;2.80;99.90
23717;DHT22;22094;52.130;5.598;2023-01-29T04:57:55;3.20;99.90
23717;DHT22;22094;52.130;5.598;2023-01-29T05:00:28;2.80;99.90
23717;DHT22;22094;52.130;5.598;2023-01-29T05:02:58;2.70;99.90
23717;DHT22;22094;52.130;5.598;2023-01-29T05:05:24;2.80;99.90
23717;DHT22;22094;52.130;5.598;2023-01-29T05:07:51;2.90;99.90
23717;DHT22;22094;52.130;5.598;2023-01-29T05:10:19;2.90;99.90
23717;DHT22;22094;52.130;5.598;2023-01-29T05:12:48;2.80;99.90
23717;DHT22;22094;52.130;5.598;2023-01-29T05:15:23;2.80;99.90
23717;DHT22;22094;52.130;5.598;2023-01-29T05:17:50;3.10;99.90
23717;DHT22;22094;52.130;5.598;2023-01-29T05:20:18;2.80;99.90
23717;DHT22;22094;52.130;5.598;2023-01-29T05:22:45;2.80;99.90
23717;DHT22;22094;52.130;5.598;2023-01-29T05:25:24;2.80;99.90
23717;DHT22;22094;52.130;5.598;2023-01-29T05:27:51;2.80;99.90
23717;DHT22;22094;52.130;5.598;2023-01-29T05:30:37;2.70;99.90
23717;DHT22;22094;52.130;5.598;2023-01-29T05:33:08;2.80;99.90
23717;DHT22;22094;52.130;5.598;2023-01-29T05:35:35;2.80;99.90
23717;DHT22;22094;52.130;5.598;2023-01-29T05:38:01;2.80;99.90
23717;DHT22;22094;52.130;5.598;2023-01-29T05:40:27;2.80;99.90
23717;DHT22;22094;52.130;5.598;2023-01-29T05:42:54;2.80;99.90
23717;DHT22;22094;52.130;5.598;2023-01-29T05:45:23;2.80;99.90
23717;DHT22;22094;52.130;5.598;2023-01-29T05:47:49;3.20;99.90
23717;DHT22;22094;52.130;5.598;2023-01-29T05:50:15;2.70;99.90
23717;DHT22;22094;52.130;5.598;2023-01-29T05:52:41;2.70;99.90
23717;DHT22;22094;52.130;5.598;2023-01-29T05:55:08;2.80;99.90
23717;DHT22;22094;52.130;5.598;2023-01-29T05:57:34;2.70;99.90
23717;DHT22;22094;52.130;5.598;2023-01-29T05:59:59;2.80;99.90
23717;DHT22;22094;52.130;5.598;2023-01-29T06:02:25;2.70;99.90
23717;DHT22;22094;52.130;5.598;2023-01-29T06:04:53;2.70;99.90
23717;DHT22;22094;52.130;5.598;2023-01-29T06:07:19;2.70;99.90
23717;DHT22;22094;52.130;5.598;2023-01-29T06:09:44;2.70;99.90
23717;DHT22;22094;52.130;5.598;2023-01-29T06:12:10;2.70;99.90
23717;DHT22;22094;52.130;5.598;2023-01-29T06:14:35;2.80;99.90
23717;DHT22;22094;52.130;5.598;2023-01-29T06:17:01;2.70;99.90
23717;DHT22;22094;52.130;5.598;2023-01-29T06:19:26;2.80;99.90
23717;DHT22;22094;52.130;5.598;2023-01-29T06:21:52;2.80;99.90
23717;DHT22;22094;52.130;5.598;2023-01-29T06:24:18;2.80;99.90
23717;DHT22;22094;52.130;5.598;2023-01-29T06:26:43;2.80;99.90
23717;DHT22;22094;52.130;5.598;2023-01-29T06:29:09;2.80;99.90
23717;DHT22;22094;52.130;5.598;2023-01-29T06:31:34;2.80;99.90
23717;DHT22;22094;52.130;5.598;2023-01-29T06:34:00;2.80;99.90
23717;DHT22;22094;52.130;5.598;2023-01-29T06:36:25;2.90;99.90
23717;DHT22;22094;52.130;5.598;2023-01-29T06:38:51;2.90;99.90
23717;DHT22;22094;52.130;5.598;2023-01-29T06:41:18;2.90;99.90
23717;DHT22;22094;52.130;5.598;2023-01-29T06:43:44;2.90;99.90
23717;DHT22;22094;52.130;5.598;2023-01-29T06:46:10;2.80;99.90
23717;DHT22;22094;52.130;5.598;2023-01-29T06:48:35;2.80;99.90
23717;DHT22;22094;52.130;5.598;2023-01-29T06:51:02;2.80;99.90
23717;DHT22;22094;52.130;5.598;2023-01-29T06:53:29;2.90;99.90
23717;DHT22;22094;52.130;5.598;2023-01-29T06:55:55;2.90;99.90
23717;DHT22;22094;52.130;5.598;2023-01-29T06:58:20;2.90;99.90
23717;DHT22;22094;52.130;5.598;2023-01-29T07:00:46;2.90;99.90
23717;DHT22;22094;52.130;5.598;2023-01-29T07:03:12;3.00;99.90
23717;DHT22;22094;52.130;5.598;2023-01-29T07:05:37;3.00;99.90
23717;DHT22;22094;52.130;5.598;2023-01-29T07:08:03;3.00;99.90
23717;DHT22;22094;52.130;5.598;2023-01-29T07:10:29;3.30;99.90
23717;DHT22;22094;52.130;5.598;2023-01-29T07:12:55;3.10;99.90
23717;DHT22;22094;52.130;5.598;2023-01-29T07:15:20;3.10;99.90
23717;DHT22;22094;52.130;5.598;2023-01-29T07:17:58;3.10;99.90
23717;DHT22;22094;52.130;5.598;2023-01-29T07:20:26;3.10;99.90
23717;DHT22;22094;52.130;5.598;2023-01-29T07:22:52;3.00;99.90
23717;DHT22;22094;52.130;5.598;2023-01-29T07:25:17;3.10;99.90
23717;DHT22;22094;52.130;5.598;2023-01-29T07:27:43;3.10;99.90
23717;DHT22;22094;52.130;5.598;2023-01-29T07:30:09;3.10;99.90
23717;DHT22;22094;52.130;5.598;2023-01-29T07:32:35;3.10;99.90
23717;DHT22;22094;52.130;5.598;2023-01-29T07:35:00;3.10;99.90
23717;DHT22;22094;52.130;5.598;2023-01-29T07:37:26;3.20;99.90
23717;DHT22;22094;52.130;5.598;2023-01-29T07:39:51;3.20;99.90
23717;DHT22;22094;52.130;5.598;2023-01-29T07:42:17;3.10;99.90
23717;DHT22;22094;52.130;5.598;2023-01-29T07:44:42;3.10;99.90
23717;DHT22;22094;52.130;5.598;2023-01-29T07:47:08;3.10;99.90
23717;DHT22;22094;52.130;5.598;2023-01-29T07:49:33;3.10;99.90
23717;DHT22;22094;52.130;5.598;2023-01-29T07:51:59;3.10;99.90
23717;DHT22;22094;52.130;5.598;2023-01-29T07:54:24;3.20;99.90
23717;DHT22;22094;52.130;5.598;2023-01-29T07:56:50;3.20;99.90
23717;DHT22;22094;52.130;5.598;2023-01-29T07:59:15;3.20;99.90
23717;DHT22;22094;52.130;5.598;2023-01-29T08:01:41;3.20;99.90
23717;DHT22;22094;52.130;5.598;2023-01-29T08:04:06;3.20;99.90
23717;DHT22;22094;52.130;5.598;2023-01-29T08:06:32;3.20;99.90
23717;DHT22;22094;52.130;5.598;2023-01-29T08:08:58;3.20;99.90
23717;DHT22;22094;52.130;5.598;2023-01-29T08:11:24;3.20;99.90
23717;DHT22;22094;52.130;5.598;2023-01-29T08:13:49;3.30;99.90
23717;DHT22;22094;52.130;5.598;2023-01-29T08:16:15;3.30;99.90
23717;DHT22;22094;52.130;5.598;2023-01-29T08:18:40;3.30;99.90
23717;DHT22;22094;52.130;5.598;2023-01-29T08:21:12;3.20;99.90
23717;DHT22;22094;52.130;5.598;2023-01-29T08:23:37;3.30;99.90
23717;DHT22;22094;52.130;5.598;2023-01-29T08:26:04;3.20;99.90
23717;DHT22;22094;52.130;5.598;2023-01-29T08:28:29;3.30;99.90
23717;DHT22;22094;52.130;5.598;2023-01-29T08:30:55;3.30;99.90
23717;DHT22;22094;52.130;5.598;2023-01-29T08:33:21;3.30;99.90
23717;DHT22;22094;52.130;5.598;2023-01-29T08:35:50;3.70;99.90
23717;DHT22;22094;52.130;5.598;2023-01-29T08:38:16;3.40;99.90
23717;DHT22;22094;52.130;5.598;2023-01-29T08:40:42;3.40;99.90
23717;DHT22;22094;52.130;5.598;2023-01-29T08:43:10;3.40;99.90
23717;DHT22;22094;52.130;5.598;2023-01-29T08:45:38;2.10;99.90
23717;DHT22;22094;52.130;5.598;2023-01-29T08:48:04;3.40;99.90
23717;DHT22;22094;52.130;5.598;2023-01-29T08:50:30;3.40;99.90
23717;DHT22;22094;52.130;5.598;2023-01-29T08:55:24;3.60;99.90
23717;DHT22;22094;52.130;5.598;2023-01-29T08:57:49;3.70;99.90
23717;DHT22;22094;52.130;5.598;2023-01-29T09:00:15;4.60;99.90
23717;DHT22;22094;52.130;5.598;2023-01-29T09:02:41;3.60;99.90
23717;DHT22;22094;52.130;5.598;2023-01-29T09:05:07;3.90;99.90
23717;DHT22;22094;52.130;5.598;2023-01-29T09:07:32;4.10;99.90
23717;DHT22;22094;52.130;5.598;2023-01-29T09:09:58;3.60;99.90
23717;DHT22;22094;52.130;5.598;2023-01-29T09:12:24;3.70;99.90
23717;DHT22;22094;52.130;5.598;2023-01-29T09:17:16;3.70;99.90
23717;DHT22;22094;52.130;5.598;2023-01-29T09:19:41;1.50;99.90
23717;DHT22;22094;52.130;5.598;2023-01-29T09:24:33;3.80;99.90
23717;DHT22;22094;52.130;5.598;2023-01-29T09:29:25;4.10;99.90
23717;DHT22;22094;52.130;5.598;2023-01-29T09:34:17;3.80;99.90
23717;DHT22;22094;52.130;5.598;2023-01-29T09:36:42;1.30;99.90
23717;DHT22;22094;52.130;5.598;2023-01-29T09:41:45;4.10;99.90
23717;DHT22;22094;52.130;5.598;2023-01-29T09:47:24;4.00;99.90
23717;DHT22;22094;52.130;5.598;2023-01-29T09:52:39;4.20;99.90
23717;DHT22;22094;52.130;5.598;2023-01-29T09:58:04;4.20;99.90
23717;DHT22;22094;52.130;5.598;2023-01-29T10:00:53;4.30;99.90
23717;DHT22;22094;52.130;5.598;2023-01-29T10:19:19;6.70;99.90
23717;DHT22;22094;52.130;5.598;2023-01-29T10:25:00;5.20;99.90
23717;DHT22;22094;52.130;5.598;2023-01-29T10:27:32;4.20;99.90
23717;DHT22;22094;52.130;5.598;2023-01-29T10:30:00;4.60;99.90
23717;DHT22;22094;52.130;5.598;2023-01-29T10:32:27;4.50;99.90
23717;DHT22;22094;52.130;5.598;2023-01-29T10:35:19;4.70;99.90
23717;DHT22;22094;52.130;5.598;2023-01-29T10:40:42;4.40;99.90
23717;DHT22;22094;52.130;5.598;2023-01-29T10:43:21;6.00;99.90
23717;DHT22;22094;52.130;5.598;2023-01-29T10:51:21;4.50;99.90
23717;DHT22;22094;52.130;5.598;2023-01-29T10:54:18;3.90;99.90
23717;DHT22;22094;52.130;5.598;2023-01-29T11:01:49;6.70;99.90
23717;DHT22;22094;52.130;5.598;2023-01-29T11:04:14;4.10;99.90
23717;DHT22;22094;52.130;5.598;2023-01-29T11:06:41;4.50;99.90
23717;DHT22;22094;52.130;5.598;2023-01-29T11:12:13;2.30;99.90
23717;DHT22;22094;52.130;5.598;2023-01-29T11:14:50;4.40;99.90
23717;DHT22;22094;52.130;5.598;2023-01-29T11:17:22;1.40;99.90
23717;DHT22;22094;52.130;5.598;2023-01-29T11:19:49;5.70;99.90
23717;DHT22;22094;52.130;5.598;2023-01-29T11:22:23;1.40;99.90
23717;DHT22;22094;52.130;5.598;2023-01-29T11:25:25;4.40;99.90
23717;DHT22;22094;52.130;5.598;2023-01-29T11:27:57;5.60;99.90
23717;DHT22;22094;52.130;5.598;2023-01-29T11:30:38;4.40;99.90
23717;DHT22;22094;52.130;5.598;2023-01-29T11:35:37;4.60;99.90
23717;DHT22;22094;52.130;5.598;2023-01-29T11:38:25;4.50;99.90
23717;DHT22;22094;52.130;5.598;2023-01-29T11:40:52;4.50;99.90
23717;DHT22;22094;52.130;5.598;2023-01-29T11:43:22;5.50;99.90
23717;DHT22;22094;52.130;5.598;2023-01-29T11:45:50;7.30;99.90
23717;DHT22;22094;52.130;5.598;2023-01-29T11:48:19;5.40;99.90
23717;DHT22;22094;52.130;5.598;2023-01-29T11:51:18;4.70;99.90
23717;DHT22;22094;52.130;5.598;2023-01-29T11:53:50;4.50;99.90
23717;DHT22;22094;52.130;5.598;2023-01-29T11:56:26;4.50;99.90
23717;DHT22;22094;52.130;5.598;2023-01-29T11:58:54;4.70;99.90
23717;DHT22;22094;52.130;5.598;2023-01-29T12:01:35;4.60;99.90
23717;DHT22;22094;52.130;5.598;2023-01-29T12:06:43;4.70;99.90
23717;DHT22;22094;52.130;5.598;2023-01-29T12:09:21;4.80;99.90
23717;DHT22;22094;52.130;5.598;2023-01-29T12:14:30;4.60;99.90
23717;DHT22;22094;52.130;5.598;2023-01-29T12:17:18;5.40;99.90
23717;DHT22;22094;52.130;5.598;2023-01-29T12:19:46;7.20;99.90
23717;DHT22;22094;52.130;5.598;2023-01-29T12:22:21;5.50;99.90
23717;DHT22;22094;52.130;5.598;2023-01-29T12:24:56;4.50;99.90
23717;DHT22;22094;52.130;5.598;2023-01-29T12:27:56;6.40;99.90
23717;DHT22;22094;52.130;5.598;2023-01-29T12:30:33;4.60;99.90
23717;DHT22;22094;52.130;5.598;2023-01-29T12:35:30;4.30;99.90
23717;DHT22;22094;52.130;5.598;2023-01-29T12:38:09;4.80;99.90
23717;DHT22;22094;52.130;5.598;2023-01-29T12:41:07;4.60;99.90
23717;DHT22;22094;52.130;5.598;2023-01-29T12:43:45;4.50;99.90
23717;DHT22;22094;52.130;5.598;2023-01-29T12:46:30;4.40;99.90
23717;DHT22;22094;52.130;5.598;2023-01-29T12:49:01;4.30;99.90
23717;DHT22;22094;52.130;5.598;2023-01-29T12:51:39;4.30;99.90
23717;DHT22;22094;52.130;5.598;2023-01-29T12:54:11;4.20;99.90
23717;DHT22;22094;52.130;5.598;2023-01-29T12:56:42;4.50;99.90
23717;DHT22;22094;52.130;5.598;2023-01-29T12:59:34;4.60;99.90
23717;DHT22;22094;52.130;5.598;2023-01-29T13:04:56;4.50;99.90
23717;DHT22;22094;52.130;5.598;2023-01-29T13:07:30;4.50;99.90
23717;DHT22;22094;52.130;5.598;2023-01-29T13:10:05;4.60;99.90
23717;DHT22;22094;52.130;5.598;2023-01-29T13:12:34;4.60;99.90
23717;DHT22;22094;52.130;5.598;2023-01-29T13:15:12;5.20;99.90
23717;DHT22;22094;52.130;5.598;2023-01-29T13:17:43;4.60;99.90
23717;DHT22;22094;52.130;5.598;2023-01-29T13:20:25;4.80;99.90
23717;DHT22;22094;52.130;5.598;2023-01-29T13:22:55;4.50;99.90
23717;DHT22;22094;52.130;5.598;2023-01-29T13:27:47;4.50;99.90
23717;DHT22;22094;52.130;5.598;2023-01-29T13:30:30;2.90;99.90
23717;DHT22;22094;52.130;5.598;2023-01-29T13:32:58;4.70;99.90
23717;DHT22;22094;52.130;5.598;2023-01-29T13:35:37;4.90;99.90
23717;DHT22;22094;52.130;5.598;2023-01-29T13:38:04;5.60;99.90
23717;DHT22;22094;52.130;5.598;2023-01-29T13:40:31;5.00;99.90
23717;DHT22;22094;52.130;5.598;2023-01-29T13:42:59;4.90;99.90
23717;DHT22;22094;52.130;5.598;2023-01-29T13:45:42;7.20;99.90
23717;DHT22;22094;52.130;5.598;2023-01-29T13:48:28;5.20;99.90
23717;DHT22;22094;52.130;5.598;2023-01-29T13:51:02;5.30;99.90
23717;DHT22;22094;52.130;5.598;2023-01-29T13:53:37;5.30;99.90
23717;DHT22;22094;52.130;5.598;2023-01-29T13:56:27;5.50;99.90
23717;DHT22;22094;52.130;5.598;2023-01-29T13:58:54;8.90;99.90
23717;DHT22;22094;52.130;5.598;2023-01-29T14:04:30;5.40;99.90
23717;DHT22;22094;52.130;5.598;2023-01-29T14:17:24;5.10;99.90
23717;DHT22;22094;52.130;5.598;2023-01-29T14:19:54;5.00;99.90
23717;DHT22;22094;52.130;5.598;2023-01-29T14:22:25;5.00;99.90
23717;DHT22;22094;52.130;5.598;2023-01-29T14:24:59;5.20;99.90
23717;DHT22;22094;52.130;5.598;2023-01-29T14:27:25;4.90;99.90
23717;DHT22;22094;52.130;5.598;2023-01-29T14:30:02;5.10;99.90
23717;DHT22;22094;52.130;5.598;2023-01-29T14:32:30;5.30;99.90
23717;DHT22;22094;52.130;5.598;2023-01-29T14:35:02;5.20;99.90
23717;DHT22;22094;52.130;5.598;2023-01-29T14:37:35;5.40;99.90
23717;DHT22;22094;52.130;5.598;2023-01-29T14:40:22;3.80;99.90
23717;DHT22;22094;52.130;5.598;2023-01-29T14:43:07;4.90;99.90
23717;DHT22;22094;52.130;5.598;2023-01-29T14:45:44;4.90;99.90
23717;DHT22;22094;52.130;5.598;2023-01-29T15:00:54;4.90;99.90
23717;DHT22;22094;52.130;5.598;2023-01-29T15:03:42;5.00;99.90
23717;DHT22;22094;52.130;5.598;2023-01-29T15:06:15;5.00;99.90
23717;DHT22;22094;52.130;5.598;2023-01-29T15:09:33;5.10;99.90
23717;DHT22;22094;52.130;5.598;2023-01-29T15:14:23;5.00;99.90
23717;DHT22;22094;52.130;5.598;2023-01-29T15:16:52;5.00;99.90
23717;DHT22;22094;52.130;5.598;2023-01-29T15:19:25;4.80;99.90
23717;DHT22;22094;52.130;5.598;2023-01-29T15:22:03;2.50;99.90
23717;DHT22;22094;52.130;5.598;2023-01-29T15:24:32;4.90;99.90
23717;DHT22;22094;52.130;5.598;2023-01-29T15:26:57;5.00;99.90
23717;DHT22;22094;52.130;5.598;2023-01-29T15:29:25;2.30;99.90
23717;DHT22;22094;52.130;5.598;2023-01-29T15:31:52;4.80;99.90
23717;DHT22;22094;52.130;5.598;2023-01-29T15:34:18;5.10;99.90
23717;DHT22;22094;52.130;5.598;2023-01-29T15:36:44;5.00;99.90
23717;DHT22;22094;52.130;5.598;2023-01-29T15:41:37;5.00;99.90
23717;DHT22;22094;52.130;5.598;2023-01-29T15:44:03;5.00;99.90
23717;DHT22;22094;52.130;5.598;2023-01-29T15:46:39;4.90;99.90
23717;DHT22;22094;52.130;5.598;2023-01-29T15:49:09;4.90;99.90
23717;DHT22;22094;52.130;5.598;2023-01-29T15:51:35;4.90;99.90
23717;DHT22;22094;52.130;5.598;2023-01-29T15:54:11;4.90;99.90
23717;DHT22;22094;52.130;5.598;2023-01-29T15:56:42;4.90;99.90
23717;DHT22;22094;52.130;5.598;2023-01-29T15:59:24;4.90;99.90
23717;DHT22;22094;52.130;5.598;2023-01-29T16:01:51;4.80;99.90
23717;DHT22;22094;52.130;5.598;2023-01-29T16:04:25;4.80;99.90
23717;DHT22;22094;52.130;5.598;2023-01-29T16:06:53;4.80;99.90
23717;DHT22;22094;52.130;5.598;2023-01-29T16:09:21;4.80;99.90
23717;DHT22;22094;52.130;5.598;2023-01-29T16:11:52;4.80;99.90
23717;DHT22;22094;52.130;5.598;2023-01-29T16:14:21;4.80;99.90
23717;DHT22;22094;52.130;5.598;2023-01-29T16:16:47;4.80;99.90
23717;DHT22;22094;52.130;5.598;2023-01-29T16:21:55;4.70;99.90
23717;DHT22;22094;52.130;5.598;2023-01-29T16:24:22;4.70;99.90
23717;DHT22;22094;52.130;5.598;2023-01-29T16:26:50;4.70;99.90
23717;DHT22;22094;52.130;5.598;2023-01-29T16:29:22;4.70;99.90
23717;DHT22;22094;52.130;5.598;2023-01-29T16:31:53;4.60;99.90
23717;DHT22;22094;52.130;5.598;2023-01-29T16:34:28;4.50;99.90
23717;DHT22;22094;52.130;5.598;2023-01-29T16:36:55;4.50;99.90
23717;DHT22;22094;52.130;5.598;2023-01-29T16:39:28;4.40;99.90
23717;DHT22;22094;52.130;5.598;2023-01-29T16:44:59;4.40;99.90
23717;DHT22;22094;52.130;5.598;2023-01-29T16:50:22;4.30;99.90
23717;DHT22;22094;52.130;5.598;2023-01-29T16:53:00;4.30;99.90
23717;DHT22;22094;52.130;5.598;2023-01-29T16:55:34;4.30;99.90
23717;DHT22;22094;52.130;5.598;2023-01-29T16:58:08;4.30;99.90
23717;DHT22;22094;52.130;5.598;2023-01-29T17:00:36;4.20;99.90
23717;DHT22;22094;52.130;5.598;2023-01-29T17:03:06;4.20;99.90
23717;DHT22;22094;52.130;5.598;2023-01-29T17:05:34;4.20;99.90
23717;DHT22;22094;52.130;5.598;2023-01-29T17:08:01;4.20;99.90
23717;DHT22;22094;52.130;5.598;2023-01-29T17:10:28;4.10;99.90
23717;DHT22;22094;52.130;5.598;2023-01-29T17:16:01;4.00;99.90
23717;DHT22;22094;52.130;5.598;2023-01-29T17:18:28;4.00;99.90
23717;DHT22;22094;52.130;5.598;2023-01-29T17:20:53;4.00;99.90
23717;DHT22;22094;52.130;5.598;2023-01-29T17:23:20;4.00;99.90
23717;DHT22;22094;52.130;5.598;2023-01-29T17:25:46;4.00;99.90
23717;DHT22;22094;52.130;5.598;2023-01-29T17:28:14;4.00;99.90
23717;DHT22;22094;52.130;5.598;2023-01-29T17:30:40;4.00;99.90
23717;DHT22;22094;52.130;5.598;2023-01-29T17:33:15;3.90;99.90
23717;DHT22;22094;52.130;5.598;2023-01-29T17:35:42;3.90;99.90
23717;DHT22;22094;52.130;5.598;2023-01-29T17:38:12;3.90;99.90
23717;DHT22;22094;52.130;5.598;2023-01-29T17:40:41;3.90;99.90
23717;DHT22;22094;52.130;5.598;2023-01-29T17:43:09;3.90;99.90
23717;DHT22;22094;52.130;5.598;2023-01-29T17:45:38;4.00;99.90
23717;DHT22;22094;52.130;5.598;2023-01-29T17:48:17;4.00;99.90
23717;DHT22;22094;52.130;5.598;2023-01-29T17:50:44;4.00;99.90
23717;DHT22;22094;52.130;5.598;2023-01-29T17:53:16;4.00;99.90
23717;DHT22;22094;52.130;5.598;2023-01-29T17:55:42;4.00;99.90
23717;DHT22;22094;52.130;5.598;2023-01-29T17:58:40;4.00;99.90
23717;DHT22;22094;52.130;5.598;2023-01-29T18:01:05;4.00;99.90
23717;DHT22;22094;52.130;5.598;2023-01-29T18:03:31;4.00;99.90
23717;DHT22;22094;52.130;5.598;2023-01-29T18:05:57;4.00;99.90
23717;DHT22;22094;52.130;5.598;2023-01-29T18:08:29;4.10;99.90
23717;DHT22;22094;52.130;5.598;2023-01-29T18:10:55;4.10;99.90
23717;DHT22;22094;52.130;5.598;2023-01-29T18:13:21;4.10;99.90
23717;DHT22;22094;52.130;5.598;2023-01-29T18:15:46;4.10;99.90
23717;DHT22;22094;52.130;5.598;2023-01-29T18:18:17;4.10;99.90
23717;DHT22;22094;52.130;5.598;2023-01-29T18:20:43;4.10;99.90
23717;DHT22;22094;52.130;5.598;2023-01-29T18:23:09;4.10;99.90
23717;DHT22;22094;52.130;5.598;2023-01-29T18:25:35;4.10;99.90
23717;DHT22;22094;52.130;5.598;2023-01-29T18:28:01;4.20;99.90
23717;DHT22;22094;52.130;5.598;2023-01-29T18:30:26;4.20;99.90
23717;DHT22;22094;52.130;5.598;2023-01-29T18:32:52;4.20;99.90
23717;DHT22;22094;52.130;5.598;2023-01-29T18:35:19;4.20;99.90
23717;DHT22;22094;52.130;5.598;2023-01-29T18:37:45;4.20;99.90
23717;DHT22;22094;52.130;5.598;2023-01-29T18:40:11;4.30;99.90
23717;DHT22;22094;52.130;5.598;2023-01-29T18:42:39;4.20;99.90
23717;DHT22;22094;52.130;5.598;2023-01-29T18:45:05;4.20;99.90
23717;DHT22;22094;52.130;5.598;2023-01-29T18:47:31;4.30;99.90
23717;DHT22;22094;52.130;5.598;2023-01-29T18:49:57;4.30;99.90
23717;DHT22;22094;52.130;5.598;2023-01-29T18:52:22;4.30;99.90
23717;DHT22;22094;52.130;5.598;2023-01-29T18:54:48;4.20;99.90